Watauga, South Dakota
Current Conditions -  °F | °C
As of 12:53 AM on Saturday 25 Oct 2014 (Local Time) from KHEI Reporting Station
Scattered Clouds Scattered Clouds  
Wind Chill: 47°   Ceiling: Unl
Heat Index: 47°   Visibility: 10mi
Dew Point: 32°   Wind: 3mph
Humidity: 56%   Direction: 350°N
Pressure: 30.12"   Gusts: NA
Location:  45.92°N, 101.54°W
Report Text: KHEI 250653Z AUTO 35003KT 10SM SCT110 08/00 A3012 RMK AO2 SLP198 T00830000 401940033
Loading
Personal Weather Stations






























Interactive Weather Map
Tropical Storm Tracking
New forecast layout! Learn more

10-Day Weather Forecast

Advertisements
Track Severe Weather on mobile